Tiempo atmosférico en la estación meteorológica de Segorbe, Castelló/Castellón (460 m.)



Fecha
DESCASC
Temp. máxima en grados centígrados (hora)
DESCASC
Temp. mínima en grados centígrados (hora)
DESCASC
Temp. media en grados centígrados
DESCASC
Racha de viento máxima en m/sg (hora)
DESCASC
Velocidad máxima media en intervalos de 10 minutos(hora)
DESCASC
Precipitaciones diarias en mm
DESCASC
Precipitaciones de 00:00 a 06:00 en mm
DESCASC
Precipitaciones de 06:00 a 12:00 en mm
DESCASC
Precipitaciones de 12:00 a 18:00 en mm
DESCASC
Precipitaciones de 18:00 a 24:00 en mm
DESCASC
22-01-2020 11.6 (15:30) 4.1 (23:30) 7.9 6.39 (16:50) 2.5 (18:10) 15.6 3.2 12.4 0 0
21-01-2020 10.6 (13:20) 5.3 (00:00) 8 13.61 (13:20) 4.72 (13:10) 5.4 1.2 0.8 1.4 2
20-01-2020 6.9 (00:00) 3.4 (03:00) 5.2 15.28 (01:00) 7.22 (01:00) 8 3 2 1.8 1.2
19-01-2020 10.9 (00:20) 4.3 (00:00) 7.6 12.5 (23:59) 5.83 (22:00) 11 0 4.8 2.8 3.4
18-01-2020 15.2 (14:00) 2.4 (00:00) 8.8 9.72 (16:50) 3.33 (17:50) 0 0 0 0 0
17-01-2020 17.8 (13:30) 3.1 (00:00) 10.4 9.17 (05:30) 4.17 (05:30) 0 0 0 0 0
16-01-2020 17 (14:00) 3.1 (00:00) 10 4.72 (01:40) 3.06 (05:40) 0 0 0 0 0
15-01-2020 15 (14:40) -1 (-00:0) 7 4.17 (05:40) 3.06 (05:40) 0 0 0 0 0
14-01-2020 13.9 (13:20) -2.3 (-00:0) 5.8 4.17 (04:40) 3.06 (02:00) 0 0 0 0 0
13-01-2020 14.8 (14:20) -2.2 (-00:0) 6.3 4.44 (15:10) 3.33 (22:30) 0 0 0 0 0
12-01-2020 13.8 (13:20) -1.8 (-00:0) 6 5 (14:20) 3.61 (03:10) 0 0 0 0 0
11-01-2020 14.5 (13:50) 0 (00:00) 7.3 5 (03:40) 3.06 (19:10) 0 0 0 0 0
10-01-2020 14.4 (13:40) 2.5 (00:00) 8.4 11.67 (11:20) 5.83 (11:20) 0 0 0 0 0
09-01-2020 13.6 (14:10) 0.9 (00:00) 7.3 5 (13:40) 2.5 (05:40) 0 0 0 0 0
08-01-2020 12.2 (14:20) 1.5 (00:00) 6.8 5.56 (11:50) 3.06 (17:30) 0 0 0 0 0
07-01-2020 14.5 (13:50) 0.8 (00:00) 7.7 4.17 (07:50) 3.33 (19:00) 0 0 0 0 0
06-01-2020 13.6 (13:30) 0.4 (00:00) 7 3.89 (01:50) 2.78 (03:10) 0 0 0 0 0
05-01-2020 16.7 (14:00) 0.6 (00:00) 8.7 4.44 (01:00) 3.33 (17:30) 0 0 0 0 0
04-01-2020 15 (14:10) 2.1 (00:00) 8.5 5 (15:10) 2.5 (21:30) 0 0 0 0 0
03-01-2020 12.1 (13:20) 0.9 (00:00) 6.5 3.89 (16:00) 2.78 (07:50) 0 0 0 0 0
02-01-2020 10.2 (14:20) 2.5 (00:00) 6.3 3.61 (20:20) 2.78 (20:20) 0 0 0 0 0
01-01-2020 11.2 (15:00) 0.5 (00:00) 5.8 3.61 (16:10) 2.22 (02:40) 0 0 0 0 0
31-12-2019 -- (--) -- (--) -- -- (--) -- (--) 0 0 0 0 0
30-12-2019 11.8 (14:30) 1.7 (00:00) 6.8 -- (--) -- (--) 0 0 0 0 0
29-12-2019 12.6 (13:40) 1.6 (00:00) 7.1 3.61 (17:20) 2.78 (22:20) 0 0 0 0 0
28-12-2019 14 (14:20) -1.1 (-00:0) 6.4 4.72 (08:50) 3.06 (08:50) 0 0 0 0 0
27-12-2019 16.9 (13:40) 2.4 (00:00) 9.6 4.17 (17:40) 3.61 (17:10) 0 0 0 0 0
26-12-2019 22.2 (12:40) 5.5 (00:00) 13.9 8.61 (10:20) 4.44 (10:20) 0 0 0 0 0
25-12-2019 20.4 (13:50) 6 (00:00) 13.2 4.72 (21:00) 3.06 (17:50) 0 0 0 0 0

Gráficas

Temp. máximas Temp. mínimas Temp. medias Precipitaciones Rachas de viento máximas Velocidades máximas media en intervalos de 10 minutos

Datos horarios

Fecha y hora oficial Temperatura (ºC) Velocidad del viento (km/h) Dirección del viento Racha (km/h) Dirección de racha Precipitación (mm) Presión (hPa) Tendencia (hPa) Humedad (%)
2020-01-23 23:00:00 8.5 0 Calma 6 Sudeste 0 -- -- 96
2020-01-23 22:00:00 8.6 0 Calma 9 Sur 0.2 -- -- 95
2020-01-23 21:00:00 8.7 3 Sudeste 11 Este 0 -- -- 95
2020-01-23 20:00:00 8.7 3 Sudeste 9 Este 0 -- -- 94
2020-01-23 19:00:00 8.8 2 Sudeste 11 Sudeste 0 -- -- 92
2020-01-23 18:00:00 9.2 3 Sur 13 Este 0 -- -- 87
2020-01-23 17:00:00 9.8 3 Sudeste 8 Sudeste 0 -- -- 83
2020-01-23 16:00:00 10.1 2 Sudeste 13 Este 0 -- -- 81
2020-01-23 15:00:00 10 5 Sudeste 14 Este 0 -- -- 81
2020-01-23 14:00:00 10.4 2 Nordeste 19 Este 0 -- -- 78
2020-01-23 13:00:00 9.9 0 Calma 13 Noroeste 0 -- -- 81
2020-01-23 12:00:00 9.5 3 Nordeste 6 Nordeste 0 -- -- 81
2020-01-23 11:00:00 7.3 0 Calma 3 Sudeste 0 -- -- 98
2020-01-23 10:00:00 3.6 4 Sudoeste 6 Sudoeste 0 -- -- 99
2020-01-23 09:00:00 1.9 2 Oeste 8 Sudoeste 34 -- -- 98
2020-01-23 08:00:00 2.4 9 Sudoeste 14 Sudoeste 0 -- -- 98
2020-01-23 07:00:00 2.2 8 Sudoeste 14 Sudoeste 0 -- -- 98
2020-01-23 06:00:00 2.1 0 Calma 8 Sudoeste 0 -- -- 97
2020-01-23 05:00:00 2.5 0 Calma 6 Oeste 0 -- -- 97
2020-01-23 04:00:00 3.2 7 Sudoeste 12 Sudoeste 0 -- -- 97
2020-01-23 03:00:00 3.4 10 Sudoeste 13 Sudoeste 0 -- -- 97
2020-01-23 02:00:00 4.3 4 Sudoeste 11 Sudoeste 0 -- -- 97
2020-01-23 01:00:00 4.7 6 Sudoeste 10 Sudoeste 0 -- -- 97
2020-01-23 00:00:00 4.4 7 Sudoeste 12 Sudoeste 0 -- -- 97
2020-01-22 23:00:00 4.9 8 Sudoeste 18 Sudoeste 0 -- -- 95
2020-01-22 22:00:00 5.4 5 Oeste 10 Nordeste 0 -- -- 95
2020-01-22 21:00:00 6.8 7 Sudoeste 11 Sudoeste 0 -- -- 95
2020-01-22 20:00:00 6.8 3 Sudoeste 13 Oeste 0 -- -- 94
2020-01-22 19:00:00 7.3 4 Oeste 18 Sudeste 0 -- -- 91
2020-01-22 18:00:00 8.5 5 Oeste 18 Oeste 0 -- -- 83
2020-01-22 17:00:00 9 7 Oeste 23 Oeste 0 -- -- 81
2020-01-22 16:00:00 11.4 0 Calma 6 Sudeste 0 -- -- 79
2020-01-22 15:00:00 11.4 3 Sudeste 4 Este 0 -- -- 78
2020-01-22 14:00:00 11.1 0 Calma 10 Nordeste 0 -- -- 78
2020-01-22 13:00:00 10.8 2 Norte 8 Norte 0 -- -- 80
2020-01-22 12:00:00 10.5 2 Nordeste 11 Noroeste 0 -- -- 84
2020-01-22 11:00:00 10.2 5 Noroeste 9 Noroeste 0 -- -- 89
2020-01-22 10:00:00 8.5 0 Calma 6 Oeste 0 -- -- 98
2020-01-22 09:00:00 7 0 Calma 5 Noroeste 11.4 -- -- 98
2020-01-22 08:00:00 6.2 2 Noroeste 5 Noroeste 0.6 -- -- 97
2020-01-22 07:00:00 6.5 0 Calma 9 Sudoeste 0.4 -- -- 97
2020-01-22 06:00:00 6.6 6 Sudoeste 8 Sudoeste 0.6 -- -- 97
2020-01-22 05:00:00 7 2 Sudoeste 8 Sudoeste 0.6 -- -- 96
2020-01-22 04:00:00 7.2 3 Oeste 5 Sudoeste 0.6 -- -- 95
2020-01-22 03:00:00 8.1 2 Nordeste 8 Este 0.6 -- -- 95
2020-01-22 02:00:00 8.2 0 Calma 5 Este 0.4 -- -- 96
2020-01-22 01:00:00 8.7 0 Calma 9 Nordeste 0.4 -- -- 96
2020-01-22 00:00:00 9.5 3 Este 17 Este 0.2 -- -- 96
2020-01-21 23:00:00 9.5 4 Este 13 Este 0.4 -- -- 97
2020-01-21 22:00:00 9.1 0 Calma 12 Este 0.2 -- -- 98
2020-01-21 21:00:00 8 3 Sudoeste 7 Oeste 0.4 -- -- 96
2020-01-21 20:00:00 7.9 2 Noroeste 11 Sudoeste 0.4 -- -- 96
2020-01-21 19:00:00 8.1 8 Noroeste 14 Norte 0.4 -- -- 95
2020-01-21 18:00:00 8.4 3 Sudeste 16 Sudeste 0.4 -- -- 95
2020-01-21 17:00:00 8 3 Este 8 Nordeste 0.4 -- -- 96
2020-01-21 16:00:00 8.3 0 Calma 24 Este 0.2 -- -- 96
2020-01-21 15:00:00 7.7 3 Norte 15 Norte 0 -- -- 96
2020-01-21 14:00:00 7.7 4 Sudeste 49 Este 0.2 -- -- 95
2020-01-21 13:00:00 9.9 6 Nordeste 31 Este 0.2 -- -- 92
2020-01-21 12:00:00 10.2 12 Este 36 Nordeste 0.2 -- -- 93
2020-01-21 11:00:00 6.7 8 Noroeste 22 Norte 0 -- -- 96
2020-01-21 10:00:00 5.9 7 Noroeste 23 Noroeste 0.2 -- -- 94
2020-01-21 09:00:00 5.9 9 Noroeste 18 Noroeste 0.2 -- -- 96
2020-01-21 08:00:00 6.3 7 Norte 27 Norte 0.2 -- -- 92
2020-01-21 07:00:00 6.6 10 Nordeste 29 Nordeste 0 -- -- 89
2020-01-21 06:00:00 6.3 14 Nordeste 34 Norte 0.2 -- -- 88
2020-01-21 05:00:00 5.9 10 Nordeste 36 Nordeste 0.2 -- -- 89
2020-01-21 04:00:00 5.8 11 Norte 28 Norte 0.2 -- -- 90
2020-01-21 03:00:00 5.8 12 Norte 29 Noroeste 0.2 -- -- 90
2020-01-21 02:00:00 5.5 9 Norte 39 Norte 0.2 -- -- 89
2020-01-21 01:00:00 5.8 11 Nordeste 37 Norte 0.2 -- -- 91
2020-01-21 00:00:00 5.3 9 Nordeste 33 Norte 0.2 -- -- 91
2020-01-20 23:00:00 4.7 7 Norte 32 Norte 0.2 -- -- 90
2020-01-20 22:00:00 4.9 11 Norte 33 Norte 0.2 -- -- 88
2020-01-20 21:00:00 5.1 9 Nordeste 44 Nordeste 0.2 -- -- 88
2020-01-20 20:00:00 5.1 15 Nordeste 43 Nordeste 0.2 -- -- 87
2020-01-20 19:00:00 4.7 7 Nordeste 40 Norte 0.2 -- -- 87
2020-01-20 18:00:00 4.7 14 Nordeste 48 Nordeste 0.2 -- -- 86
2020-01-20 17:00:00 5.1 10 Nordeste 47 Nordeste 0.4 -- -- 84
2020-01-20 16:00:00 5.5 14 Nordeste 38 Nordeste 0.2 -- -- 80
2020-01-20 15:00:00 4.8 14 Norte 39 Norte 0.4 -- -- 85
2020-01-20 14:00:00 4.2 8 Norte 30 Norte 0.2 -- -- 88
2020-01-20 13:00:00 4.3 13 Norte 35 Norte 0.4 -- -- 84
2020-01-20 12:00:00 4.2 13 Nordeste 26 Noroeste 0.4 -- -- 86
2020-01-20 11:00:00 4.4 14 Norte 32 Norte 0.2 -- -- 82
2020-01-20 10:00:00 4.3 13 Norte 36 Norte 0.4 -- -- 80
2020-01-20 09:00:00 4.2 15 Nordeste 35 Este 0.4 -- -- 79
2020-01-20 08:00:00 4.2 15 Nordeste 37 Norte 0.4 -- -- 76
2020-01-20 07:00:00 4.5 19 Nordeste 42 Nordeste 0.2 -- -- 70
2020-01-20 06:00:00 4.5 21 Nordeste 50 Norte 0.6 -- -- 69
2020-01-20 05:00:00 4.9 21 Nordeste 47 Norte 0.4 -- -- 65
2020-01-20 04:00:00 4.1 17 Norte 39 Norte 0.4 -- -- 72
2020-01-20 03:00:00 3.4 14 Nordeste 48 Norte 0.4 -- -- 80
2020-01-20 02:00:00 5.1 19 Nordeste 44 Norte 0.6 -- -- 62
2020-01-20 01:00:00 6.3 26 Nordeste 55 Norte 0.6 -- -- 53
2020-01-20 00:00:00 6.9 15 Nordeste 45 Nordeste 0.4 -- -- 45
2020-01-19 23:00:00 7.1 17 Nordeste 41 Nordeste 0.6 -- -- 49
2020-01-19 22:00:00 7 21 Nordeste 43 Nordeste 0.6 -- -- 55
2020-01-19 21:00:00 6.5 10 Nordeste 22 Nordeste 0.6 -- -- 64
2020-01-19 20:00:00 6.2 14 Nordeste 43 Norte 0.6 -- -- 68
2020-01-19 19:00:00 5 5 Nordeste 28 Norte 0.6 -- -- 85
2020-01-19 18:00:00 4.6 8 Este 28 Nordeste 0.4 -- -- 88
2020-01-19 17:00:00 4.5 8 Nordeste 35 Norte 0.4 -- -- 90
2020-01-19 16:00:00 4.3 13 Nordeste 36 Este 0.4 -- -- 89
2020-01-19 15:00:00 4.4 7 Nordeste 24 Norte 0.4 -- -- 92
2020-01-19 14:00:00 4.4 13 Norte 33 Noroeste 0.6 -- -- 90
2020-01-19 13:00:00 4.9 11 Norte 34 Norte 0.6 -- -- 88
2020-01-19 12:00:00 5.8 15 Norte 31 Noroeste 0.8 -- -- 88
2020-01-19 11:00:00 5.9 15 Norte 27 Noroeste 0.6 -- -- 89
2020-01-19 10:00:00 5.6 8 Noroeste 26 Norte 0.6 -- -- 89
2020-01-19 09:00:00 5.6 5 Norte 13 Oeste 0.6 -- -- 90
2020-01-19 08:00:00 5.7 4 Oeste 13 Norte 1 -- -- 91
2020-01-19 07:00:00 6.6 5 Norte 17 Norte 1.2 -- -- 81
2020-01-19 06:00:00 8.6 12 Norte 28 Noroeste 0 -- -- 68
2020-01-19 05:00:00 9.5 15 Noroeste 31 Norte 0 -- -- 61
2020-01-19 04:00:00 9.7 15 Norte 29 Noroeste 0 -- -- 62
2020-01-19 03:00:00 9.2 11 Noroeste 28 Noroeste 0 -- -- 69
2020-01-19 02:00:00 9.1 9 Noroeste 24 Noroeste 0 -- -- 79
2020-01-19 01:00:00 10.2 6 Noroeste 13 Oeste 0 -- -- 81
2020-01-19 00:00:00 10.5 3 Oeste 11 Oeste 0 -- -- 77
2020-01-18 23:00:00 10.7 4 Sudoeste 14 Sudoeste 0 -- -- 76
2020-01-18 22:00:00 10.8 8 Sudoeste 14 Sudoeste 0 -- -- 75
2020-01-18 21:00:00 11.4 4 Sudoeste 13 Sudoeste 0 -- -- 72
2020-01-18 20:00:00 11.4 6 Oeste 15 Sudoeste 0 -- -- 72
2020-01-18 19:00:00 10.8 4 Oeste 22 Oeste 0 -- -- 70
2020-01-18 18:00:00 12.2 11 Noroeste 26 Norte 0 -- -- 62
2020-01-18 17:00:00 12.8 11 Noroeste 35 Noroeste 0 -- -- 58
2020-01-18 16:00:00 13.9 7 Noroeste 22 Oeste 0 -- -- 54
2020-01-18 15:00:00 14.6 9 Noroeste 31 Noroeste 0 -- -- 52
2020-01-18 14:00:00 15.2 6 Noroeste 29 Noroeste 0 -- -- 49
2020-01-18 13:00:00 14.1 5 Oeste 20 Oeste 0 -- -- 54
2020-01-18 12:00:00 9.3 2 Noroeste 4 Noroeste 0 -- -- 62
2020-01-18 11:00:00 7.2 0 Calma 5 Sudeste 0 -- -- 77
2020-01-18 10:00:00 5.6 0 Calma 7 Sudoeste 0 -- -- 80
2020-01-18 09:00:00 4.9 0 Calma 12 Sudoeste 0 -- -- 80
2020-01-18 08:00:00 4.1 5 Oeste 13 Sudoeste 0 -- -- 82
2020-01-18 07:00:00 3.3 5 Sudoeste 10 Sudoeste 0 -- -- 84
2020-01-18 06:00:00 2.5 6 Sudoeste 11 Sudoeste 0 -- -- 84
2020-01-18 05:00:00 3.8 6 Oeste 14 Sudoeste 0 -- -- 77
2020-01-18 04:00:00 4.3 10 Sudoeste 14 Sudoeste 0 -- -- 77
2020-01-18 03:00:00 5.5 6 Sudoeste 11 Sudoeste 0 -- -- 72
2020-01-18 02:00:00 5.8 9 Sudoeste 13 Sudoeste 0 -- -- 69
2020-01-18 01:00:00 6.8 4 Oeste 10 Oeste 0 -- -- 63
2020-01-18 00:00:00 7.7 4 Noroeste 19 Norte 0 -- -- 59
2020-01-17 23:00:00 5.8 4 Oeste 10 Oeste 0 -- -- 67
2020-01-17 22:00:00 4.4 3 Oeste 16 Sudoeste 0 -- -- 74
2020-01-17 21:00:00 5.3 8 Sudoeste 17 Sudoeste 0 -- -- 71
2020-01-17 20:00:00 6.1 13 Sudoeste 16 Sudoeste 0 -- -- 67
2020-01-17 19:00:00 7.9 4 Sudoeste 15 Sudoeste 0 -- -- 62
2020-01-17 18:00:00 10.5 6 Sudoeste 22 Noroeste 0 -- -- 58
2020-01-17 17:00:00 14.4 8 Oeste 18 Noroeste 0 -- -- 42
2020-01-17 16:00:00 15.5 6 Oeste 22 Oeste 0 -- -- 45
2020-01-17 15:00:00 16.2 9 Noroeste 26 Oeste 0 -- -- 41
2020-01-17 14:00:00 17.1 7 Noroeste 18 Noroeste 0 -- -- 39
2020-01-17 13:00:00 17.1 7 Oeste 23 Noroeste 0 -- -- 41
2020-01-17 12:00:00 15.6 4 Sudeste 14 Norte 0 -- -- 47
2020-01-17 11:00:00 13.6 10 Norte 18 Norte 0 -- -- 48
2020-01-17 10:00:00 7.1 6 Sudoeste 14 Oeste 0 -- -- 75
2020-01-17 09:00:00 8.2 6 Oeste 14 Sudoeste 0 -- -- 62
2020-01-17 08:00:00 7.7 3 Sudoeste 19 Sudoeste 0 -- -- 64
2020-01-17 07:00:00 9.1 12 Sudoeste 26 Noroeste 0 -- -- 56
2020-01-17 06:00:00 11 10 Oeste 33 Noroeste 0 -- -- 48
2020-01-17 05:00:00 8.8 3 Sudoeste 18 Noroeste 0 -- -- 63
2020-01-17 04:00:00 8.2 6 Oeste 16 Sudoeste 0 -- -- 64
2020-01-17 03:00:00 6.6 6 Oeste 13 Sudoeste 0 -- -- 79
2020-01-17 02:00:00 3.7 4 Oeste 10 Oeste 0 -- -- 97
2020-01-17 01:00:00 3.3 3 Oeste 11 Sudoeste 0 -- -- 95
2020-01-17 00:00:00 3.1 4 Sudoeste 10 Sudoeste 0 -- -- 94
2020-01-16 23:00:00 3.6 3 Sudoeste 12 Sudoeste 0 -- -- 94
2020-01-16 22:00:00 4.1 9 Sudoeste 14 Sudoeste 0 -- -- 94
2020-01-16 21:00:00 4 9 Sudoeste 14 Sudoeste 0 -- -- 92
2020-01-16 20:00:00 4.5 0 Calma 10 Sudoeste 0 -- -- 89
2020-01-16 19:00:00 6 5 Sudoeste 10 Sudoeste 0 -- -- 84
2020-01-16 18:00:00 11.1 0 Calma 12 Sur 0 -- -- 68
2020-01-16 17:00:00 13.9 9 Sur 16 Sur 0 -- -- 58
2020-01-16 16:00:00 15.4 6 Sudoeste 16 Sudoeste 0 -- -- 52
2020-01-16 15:00:00 16.5 5 Sudeste 12 Nordeste 0 -- -- 49
2020-01-16 14:00:00 17 4 Sur 15 Sudeste 0 -- -- 47
2020-01-16 13:00:00 15.9 5 Sudeste 12 Este 0 -- -- 51
2020-01-16 12:00:00 14.3 4 Sudeste 8 Sur 0 -- -- 55
2020-01-16 11:00:00 10.1 0 Calma 6 Sudoeste 0 -- -- 77
2020-01-16 10:00:00 5 2 Sudoeste 13 Sudoeste 0 -- -- 92
2020-01-16 09:00:00 3.8 6 Sudoeste 13 Sudoeste 0 -- -- 93
2020-01-16 08:00:00 4.3 4 Sudoeste 13 Sudoeste 0 -- -- 89
2020-01-16 07:00:00 4.9 9 Sudoeste 14 Sudoeste 0 -- -- 88
2020-01-16 06:00:00 5.1 11 Sudoeste 15 Sudoeste 0 -- -- 88
2020-01-16 05:00:00 5.4 7 Sudoeste 12 Sudoeste 0 -- -- 86
2020-01-16 04:00:00 6.6 5 Oeste 10 Sudoeste 0 -- -- 80
2020-01-16 03:00:00 9 3 Oeste 14 Noroeste 0 -- -- 70
2020-01-16 02:00:00 8.9 5 Noroeste 17 Noroeste 0 -- -- 72
2020-01-16 01:00:00 6.3 4 Oeste 13 Noroeste 0 -- -- 83
2020-01-16 00:00:00 6.7 3 Oeste 12 Noroeste 0 -- -- 79
2020-01-15 23:00:00 7.6 3 Oeste 13 Oeste 0 -- -- 75
2020-01-15 22:00:00 6.3 5 Oeste 14 Noroeste 0 -- -- 82
2020-01-15 21:00:00 5 3 Oeste 14 Sudoeste 0 -- -- 87
2020-01-15 20:00:00 4.8 5 Sudoeste 14 Sudoeste 0 -- -- 87
2020-01-15 19:00:00 5.8 9 Sudoeste 15 Sudoeste 0 -- -- 85
2020-01-15 18:00:00 7.4 9 Sudoeste 13 Sudoeste 0 -- -- 80
2020-01-15 17:00:00 12 2 Oeste 14 Sudeste 0 -- -- 65
2020-01-15 16:00:00 14.3 5 Este 12 Sudeste 0 -- -- 52
2020-01-15 15:00:00 14.8 6 Sudeste 14 Este 0 -- -- 49
2020-01-15 14:00:00 14.5 6 Este 14 Este 0 -- -- 46
2020-01-15 13:00:00 13.8 7 Sudeste 12 Sudeste 0 -- -- 48
2020-01-15 12:00:00 13 4 Sudeste 9 Sudeste 0 -- -- 51
2020-01-15 11:00:00 7.9 3 Sur 6 Sudoeste 0 -- -- 73
2020-01-15 10:00:00 2.7 0 Calma 11 Sudoeste 0 -- -- 87
2020-01-15 09:00:00 1.8 5 Sudoeste 10 Sudoeste 0 -- -- 80
2020-01-15 08:00:00 0.9 6 Sudoeste 14 Sudoeste 0 -- -- 88
2020-01-15 07:00:00 -1 0 Calma 12 Sudoeste 0 -- -- 87
2020-01-15 06:00:00 -0.3 4 Sudoeste 15 Sudoeste 0 -- -- 83
2020-01-15 05:00:00 -0.8 5 Sudoeste 14 Sudoeste 0 -- -- 88
2020-01-15 04:00:00 -0.4 3 Oeste 14 Sudoeste 0 -- -- 87
2020-01-15 03:00:00 0 6 Sudoeste 13 Sudoeste 0 -- -- 84
2020-01-15 02:00:00 0.3 6 Sudoeste 13 Sudoeste 0 -- -- 84
2020-01-15 01:00:00 0.4 9 Sudoeste 13 Sudoeste 0 -- -- 86
2020-01-15 00:00:00 0.3 6 Sudoeste 15 Sudoeste 0 -- -- 89
2020-01-14 23:00:00 -0.3 5 Oeste 13 Sudoeste 0 -- -- 86
2020-01-14 22:00:00 0.6 5 Sudoeste 13 Sudoeste 0 -- -- 82
2020-01-14 21:00:00 0.6 10 Sudoeste 13 Sudoeste 0 -- -- 83
2020-01-14 20:00:00 1 5 Oeste 14 Sudoeste 0 -- -- 82
2020-01-14 19:00:00 2 7 Sudoeste 14 Sudoeste 0 -- -- 79
2020-01-14 18:00:00 3.9 6 Sudoeste 10 Sudoeste 0 -- -- 75
2020-01-14 17:00:00 9.7 6 Sur 13 Sudeste 0 -- -- 58
2020-01-14 16:00:00 12.1 6 Sudeste 15 Sudeste 0 -- -- 47
2020-01-14 15:00:00 13.3 8 Sudeste 13 Sudeste 0 -- -- 49
2020-01-14 14:00:00 13.8 8 Este 13 Este 0 -- -- 41
2020-01-14 13:00:00 13.1 6 Este 12 Este 0 -- -- 44
2020-01-14 12:00:00 11.6 3 Sudeste 6 Sudeste 0 -- -- 40
2020-01-14 11:00:00 6.2 0 Calma 10 Sudoeste 0 -- -- 60
2020-01-14 10:00:00 -0.6 5 Sudoeste 9 Sudoeste 0 -- -- 74
2020-01-14 09:00:00 -1.4 5 Sudoeste 11 Sudoeste 0 -- -- 70
2020-01-14 08:00:00 -2.2 4 Oeste 10 Sudoeste 0 -- -- 72
2020-01-14 07:00:00 -2.1 6 Sudoeste 12 Sudoeste 0 -- -- 76
2020-01-14 06:00:00 -1.9 7 Sudoeste 14 Sudoeste 0 -- -- 78
2020-01-14 05:00:00 -1.4 5 Sudoeste 15 Sudoeste 0 -- -- 80
2020-01-14 04:00:00 -1.2 4 Sudoeste 11 Sudoeste 0 -- -- 82
2020-01-14 03:00:00 -1.3 0 Calma 12 Sudoeste 0 -- -- 84
2020-01-14 02:00:00 -0.8 11 Sudoeste 14 Sudoeste 0 -- -- 84
2020-01-14 01:00:00 -0.5 4 Sudoeste 10 Sudoeste 0 -- -- 83
2020-01-14 00:00:00 0.7 4 Oeste 11 Sudoeste 0 -- -- 81
2020-01-13 23:00:00 2 8 Sudoeste 15 Sudoeste 0 -- -- 77
2020-01-13 22:00:00 2 7 Sudoeste 14 Sudoeste 0 -- -- 83
2020-01-13 21:00:00 3 10 Sudoeste 14 Sudoeste 0 -- -- 80
2020-01-13 20:00:00 3.6 8 Sudoeste 13 Sudoeste 0 -- -- 78
2020-01-13 19:00:00 4.6 7 Sudoeste 12 Sudoeste 0 -- -- 76
2020-01-13 18:00:00 7.4 3 Sudoeste 6 Sudoeste 0 -- -- 72
2020-01-13 17:00:00 10.9 2 Este 12 Sudeste 0 -- -- 54
2020-01-13 16:00:00 12.5 5 Sudeste 16 Sudeste 0 -- -- 46
2020-01-13 15:00:00 14.1 5 Sudeste 13 Sudeste 0 -- -- 40
2020-01-13 14:00:00 14.5 7 Sudeste 10 Sudeste 0 -- -- 29
2020-01-13 13:00:00 13.8 5 Sudeste 10 Nordeste 0 -- -- 32
2020-01-13 12:00:00 11 5 Sudeste 9 Sudeste 0 -- -- 40
2020-01-13 11:00:00 6 0 Calma 10 Sudoeste 0 -- -- 71
2020-01-13 10:00:00 -0.9 3 Sudoeste 10 Sudoeste 0 -- -- 85
2020-01-13 09:00:00 -1 6 Sudoeste 14 Sudoeste 0 -- -- 79
2020-01-13 08:00:00 -1.5 0 Calma 14 Sudoeste 0 -- -- 82
2020-01-13 07:00:00 -2.1 0 Calma 10 Sudoeste 0 -- -- 86
2020-01-13 06:00:00 -2 9 Sudoeste 13 Sudoeste 0 -- -- 89
2020-01-13 05:00:00 -1.8 4 Oeste 12 Sudoeste 0 -- -- 91
2020-01-13 04:00:00 -1.4 5 Sudoeste 12 Sudoeste 0 -- -- 93
2020-01-13 03:00:00 -1.5 3 Sudoeste 13 Sudoeste 0 -- -- 94
2020-01-13 02:00:00 -1.3 3 Oeste 9 Sudoeste 0 -- -- 95
2020-01-13 01:00:00 -1.3 0 Calma 12 Sudoeste 0 -- -- 95
2020-01-13 00:00:00 -1 0 Calma 12 Sudoeste 0 -- -- 93
2020-01-12 23:00:00 -0.6 4 Sudoeste 10 Sudoeste 0 -- -- 92
2020-01-12 22:00:00 0.3 2 Oeste 11 Sudoeste 0 -- -- 88
2020-01-12 21:00:00 0.4 6 Sudoeste 13 Sudoeste 0 -- -- 86
2020-01-12 20:00:00 1 8 Sudoeste 13 Sudoeste 0 -- -- 84
2020-01-12 19:00:00 2.8 5 Sudoeste 13 Sudoeste 0 -- -- 83
2020-01-12 18:00:00 4.9 4 Sudoeste 13 Sur 0 -- -- 79
2020-01-12 17:00:00 7.6 4 Sur 10 Sudeste 0 -- -- 71
2020-01-12 16:00:00 11.9 5 Sudeste 10 Sudeste 0 -- -- 49
2020-01-12 15:00:00 12.8 6 Sudeste 18 Sudeste 0 -- -- 39
2020-01-12 14:00:00 13.5 7 Sudeste 16 Sudeste 0 -- -- 36
2020-01-12 13:00:00 13.5 6 Este 12 Sudeste 0 -- -- 33
2020-01-12 12:00:00 10.6 0 Calma 7 Sudeste 0 -- -- 52
2020-01-12 11:00:00 5.5 5 Sur 10 Sudoeste 0 -- -- 69
2020-01-12 10:00:00 0 8 Sudoeste 12 Sudoeste 0 -- -- 81
2020-01-12 09:00:00 -0.7 9 Sudoeste 13 Sudoeste 0 -- -- 76
2020-01-12 08:00:00 -1.8 2 Oeste 12 Sudoeste 0 -- -- 82
2020-01-12 07:00:00 -1.5 3 Oeste 11 Sudoeste 0 -- -- 83
2020-01-12 06:00:00 -1.1 4 Sudoeste 15 Sudoeste 0 -- -- 84
2020-01-12 05:00:00 -1.1 8 Sudoeste 15 Sudoeste 0 -- -- 89
2020-01-12 04:00:00 -0.8 12 Sudoeste 15 Sudoeste 0 -- -- 92
2020-01-12 03:00:00 -0.4 12 Sudoeste 15 Sudoeste 0 -- -- 92
2020-01-12 02:00:00 0 9 Sudoeste 13 Sudoeste 0 -- -- 92
2020-01-12 01:00:00 -0.4 7 Sudoeste 12 Sudoeste 0 -- -- 90
2020-01-12 00:00:00 0.1 3 Sudoeste 10 Sudoeste 0 -- -- 90
2020-01-11 23:00:00 0 2 Oeste 14 Sudoeste 0 -- -- 94
2020-01-11 22:00:00 0.4 3 Oeste 10 Sudoeste 0 -- -- 92
2020-01-11 21:00:00 1.7 2 Oeste 14 Sudoeste 0 -- -- 88
2020-01-11 20:00:00 2.4 10 Sudoeste 14 Sudoeste 0 -- -- 86
2020-01-11 19:00:00 3.1 9 Sudoeste 13 Sudoeste 0 -- -- 84
2020-01-11 18:00:00 4.7 7 Sudoeste 12 Sudoeste 0 -- -- 80
2020-01-11 17:00:00 9.7 4 Sur 14 Sudeste 0 -- -- 60
2020-01-11 16:00:00 12.1 6 Sudeste 13 Sudeste 0 -- -- 48
2020-01-11 15:00:00 13.4 4 Sudeste 10 Este 0 -- -- 42
2020-01-11 14:00:00 14.5 3 Sur 8 Sur 0 -- -- 37
2020-01-11 13:00:00 13.4 3 Sur 8 Sur 0 -- -- 39
2020-01-11 12:00:00 11.1 0 Calma 3 Sudoeste 0 -- -- 54
2020-01-11 11:00:00 6.2 2 Sur 8 Sudoeste 0 -- -- 77
2020-01-11 10:00:00 1.3 5 Sudoeste 13 Sudoeste 0 -- -- 88
2020-01-11 09:00:00 0.5 10 Sudoeste 13 Sudoeste 0 -- -- 88
2020-01-11 08:00:00 1.2 5 Sudoeste 10 Sudoeste 0 -- -- 84
2020-01-11 07:00:00 3.1 4 Sudoeste 9 Oeste 0 -- -- 76
2020-01-11 06:00:00 4.4 3 Oeste 9 Noroeste 0 -- -- 70
2020-01-11 05:00:00 4.9 4 Noroeste 14 Noroeste 0 -- -- 69
2020-01-11 04:00:00 5.6 7 Noroeste 18 Noroeste 0 -- -- 67
2020-01-11 03:00:00 3.3 3 Noroeste 10 Oeste 0 -- -- 77
2020-01-11 02:00:00 3.1 5 Sudoeste 13 Sudoeste 0 -- -- 78
2020-01-11 01:00:00 5.3 4 Oeste 12 Oeste 0 -- -- 70
2020-01-11 00:00:00 5.5 3 Oeste 10 Oeste 0 -- -- 68
2020-01-10 23:00:00 5.3 4 Oeste 11 Noroeste 0 -- -- 70
2020-01-10 22:00:00 4.7 0 Calma 6 Norte 0 -- -- 76
2020-01-10 21:00:00 4.8 2 Oeste 11 Noroeste 0 -- -- 74
2020-01-10 20:00:00 5.5 6 Noroeste 17 Norte 0 -- -- 71
2020-01-10 19:00:00 6.1 0 Calma 5 Sudoeste 0 -- -- 72
2020-01-10 18:00:00 9.8 2 Nordeste 17 Nordeste 0 -- -- 61
2020-01-10 17:00:00 11.3 9 Nordeste 24 Nordeste 0 -- -- 53
2020-01-10 16:00:00 11.7 8 Nordeste 20 Nordeste 0 -- -- 49
2020-01-10 15:00:00 12.9 4 Este 25 Norte 0 -- -- 44
2020-01-10 14:00:00 14.2 5 Este 32 Noroeste 0 -- -- 38
2020-01-10 13:00:00 13.5 14 Norte 31 Norte 0 -- -- 40
2020-01-10 12:00:00 12.8 15 Norte 42 Norte 0 -- -- 40
2020-01-10 11:00:00 11.5 17 Norte 30 Norte 0 -- -- 47
2020-01-10 10:00:00 9.1 13 Norte 30 Noroeste 0 -- -- 59
2020-01-10 09:00:00 8.6 10 Noroeste 24 Noroeste 0 -- -- 63
2020-01-10 08:00:00 9.5 12 Noroeste 29 Noroeste 0 -- -- 62
2020-01-10 07:00:00 10.2 15 Noroeste 28 Noroeste 0 -- -- 65
2020-01-10 06:00:00 10.5 13 Noroeste 32 Noroeste 0 -- -- 67
2020-01-10 05:00:00 8.6 15 Norte 31 Norte 0 -- -- 80
2020-01-10 04:00:00 3.7 0 Calma 9 Sudoeste 0 -- -- 98
2020-01-10 03:00:00 2.8 3 Sudoeste 11 Sudoeste 0 -- -- 97
2020-01-10 02:00:00 3 6 Sudoeste 13 Sudoeste 0 -- -- 98
2020-01-10 01:00:00 2.9 6 Sudoeste 12 Sudoeste 0 -- -- 97
2020-01-10 00:00:00 2.5 0 Calma 8 Sudoeste 0 -- -- 96
2020-01-09 23:00:00 3.4 0 Calma 13 Sudoeste 0 -- -- 97
2020-01-09 22:00:00 3 5 Sudoeste 10 Sudoeste 0 -- -- 96
2020-01-09 21:00:00 3.8 4 Sudoeste 12 Sudoeste 0 -- -- 95
2020-01-09 20:00:00 3.7 3 Oeste 10 Sudoeste 0 -- -- 95
2020-01-09 19:00:00 4.4 4 Sudoeste 12 Sudoeste 0 -- -- 92
2020-01-09 18:00:00 6 7 Sudoeste 10 Sudoeste 0 -- -- 89
2020-01-09 17:00:00 8.5 3 Sudoeste 7 Sudeste 0 -- -- 82
2020-01-09 16:00:00 12 4 Sur 9 Sudeste 0 -- -- 67
2020-01-09 15:00:00 13.2 3 Sur 15 Sudeste 0 -- -- 61
2020-01-09 14:00:00 13.5 6 Sudeste 18 Sudeste 0 -- -- 66
2020-01-09 13:00:00 13.2 5 Sudeste 11 Sudeste 0 -- -- 67
2020-01-09 12:00:00 10.7 5 Sudeste 7 Sudeste 0 -- -- 78
2020-01-09 11:00:00 7.1 0 Calma 5 Sudoeste 0 -- -- 99
2020-01-09 10:00:00 1.5 0 Calma 6 Sudoeste 0 -- -- 98
2020-01-09 09:00:00 1 0 Calma 13 Sudoeste 0 -- -- 98
2020-01-09 08:00:00 1 7 Sudoeste 12 Sudoeste 0 -- -- 98
2020-01-09 07:00:00 1.3 6 Sudoeste 12 Sudoeste 0 -- -- 98
2020-01-09 06:00:00 1.9 4 Oeste 12 Sudoeste 0 -- -- 98
2020-01-09 05:00:00 2 5 Sudoeste 11 Sudoeste 0 -- -- 97
2020-01-09 04:00:00 2.3 4 Sudoeste 10 Sudoeste 0 -- -- 97
2020-01-09 03:00:00 2.4 8 Sudoeste 11 Sudoeste 0 -- -- 97
2020-01-09 02:00:00 2.7 5 Sudoeste 10 Sudoeste 0 -- -- 96
2020-01-09 01:00:00 2.7 6 Sudoeste 12 Sudoeste 0 -- -- 96
2020-01-09 00:00:00 3.4 9 Sudoeste 12 Sudoeste 0 -- -- 96
2020-01-08 23:00:00 3.6 6 Sudoeste 13 Sudoeste 0 -- -- 96
2020-01-08 22:00:00 3.2 2 Oeste 12 Sudoeste 0 -- -- 95
2020-01-08 21:00:00 3.9 6 Sudoeste 13 Sudoeste 0 -- -- 93
2020-01-08 20:00:00 4.8 10 Sudoeste 13 Sudoeste 0 -- -- 93
2020-01-08 19:00:00 5.1 8 Sudoeste 14 Sudoeste 0 -- -- 90
2020-01-08 18:00:00 6.4 10 Sudoeste 14 Sudoeste 0 -- -- 88
2020-01-08 17:00:00 8.2 4 Sudoeste 8 Sudoeste 0 -- -- 84
2020-01-08 16:00:00 11.2 3 Sudeste 15 Oeste 0 -- -- 71
2020-01-08 15:00:00 11.8 6 Sur 13 Sur 0 -- -- 73
2020-01-08 14:00:00 11.9 5 Este 12 Este 0 -- -- 74
2020-01-08 13:00:00 10.7 3 Sudeste 14 Sudeste 0 -- -- 84
2020-01-08 12:00:00 9.7 5 Sur 20 Sudoeste 0 -- -- 86
2020-01-08 11:00:00 8.2 4 Nordeste 13 Este 0 -- -- 91
2020-01-08 10:00:00 3.2 0 Calma 10 Sudoeste 0 -- -- 95
2020-01-08 09:00:00 2.8 4 Sudoeste 12 Sudoeste 0 -- -- 93
2020-01-08 08:00:00 3.1 2 Sudoeste 12 Sudoeste 0 -- -- 90
2020-01-08 07:00:00 3.8 5 Sudoeste 12 Sudoeste 0 -- -- 91
2020-01-08 06:00:00 4.5 3 Sudoeste 13 Sudoeste 0 -- -- 90
2020-01-08 05:00:00 4.9 6 Sudoeste 14 Sudoeste 0 -- -- 88
2020-01-08 04:00:00 3.3 0 Calma 14 Sudoeste 0 -- -- 87
2020-01-08 03:00:00 2.2 4 Oeste 12 Sudoeste 0 -- -- 85
2020-01-08 02:00:00 1.6 5 Sudoeste 12 Sudoeste 0 -- -- 90
2020-01-08 01:00:00 1.8 3 Sudoeste 12 Sudoeste 0 -- -- 91
2020-01-08 00:00:00 2.5 4 Oeste 14 Sudoeste 0 -- -- 92
2020-01-07 23:00:00 2.6 7 Oeste 15 Sudoeste 0 -- -- 92
2020-01-07 22:00:00 2.9 9 Sudoeste 14 Sudoeste 0 -- -- 92
2020-01-07 21:00:00 3.1 6 Sudoeste 14 Sudoeste 0 -- -- 92
2020-01-07 20:00:00 3.6 11 Sudoeste 14 Sudoeste 0 -- -- 91
2020-01-07 19:00:00 4.3 12 Sudoeste 14 Sudoeste 0 -- -- 88
2020-01-07 18:00:00 5.8 8 Sudoeste 14 Sudoeste 0 -- -- 87
2020-01-07 17:00:00 8.6 4 Sudoeste 8 Sur 0 -- -- 79
2020-01-07 16:00:00 13.4 4 Sudeste 11 Este 0 -- -- 60
2020-01-07 15:00:00 14.1 5 Sudeste 11 Sudeste 0 -- -- 61
2020-01-07 14:00:00 14.5 5 Sudeste 9 Sudeste 0 -- -- 58
2020-01-07 13:00:00 13.1 3 Sudeste 7 Sur 0 -- -- 67
2020-01-07 12:00:00 9.9 3 Sudeste 6 Sudeste 0 -- -- 83
2020-01-07 11:00:00 5.2 2 Sudoeste 7 Sudoeste 0 -- -- 99
2020-01-07 10:00:00 1.4 4 Sudoeste 9 Sudoeste 0 -- -- 98
2020-01-07 09:00:00 1.3 5 Sudoeste 13 Sudoeste 0 -- -- 98
2020-01-07 08:00:00 0.9 7 Sudoeste 15 Sudoeste 0 -- -- 98
2020-01-07 07:00:00 1.2 3 Oeste 12 Sudoeste 0 -- -- 98
2020-01-07 06:00:00 1 9 Sudoeste 13 Sudoeste 0 -- -- 98
2020-01-07 05:00:00 0.9 4 Sudoeste 13 Sudoeste 0 -- -- 97
2020-01-07 04:00:00 1.4 5 Sudoeste 13 Sudoeste 0 -- -- 97
2020-01-07 03:00:00 1.4 5 Oeste 13 Sudoeste 0 -- -- 97
2020-01-07 02:00:00 1.9 2 Sudoeste 14 Sudoeste 0 -- -- 97
2020-01-07 01:00:00 1.6 2 Oeste 13 Sudoeste 0 -- -- 96
2020-01-07 00:00:00 2.1 8 Sudoeste 13 Sudoeste 0 -- -- 96
2020-01-06 23:00:00 2.3 6 Sudoeste 13 Sudoeste 0 -- -- 96
2020-01-06 22:00:00 2.4 6 Sudoeste 12 Sudoeste 0 -- -- 95
2020-01-06 21:00:00 3.1 5 Sudoeste 13 Sudoeste 0 -- -- 95
2020-01-06 20:00:00 3.5 8 Sudoeste 12 Sudoeste 0 -- -- 94
2020-01-06 19:00:00 4.4 5 Sudoeste 11 Sudoeste 0 -- -- 91
2020-01-06 18:00:00 6 5 Sudoeste 11 Sudoeste 0 -- -- 88
2020-01-06 17:00:00 9.8 3 Sur 10 Sudeste 0 -- -- 77
2020-01-06 16:00:00 11.8 6 Sudeste 12 Sudeste 0 -- -- 71
2020-01-06 15:00:00 12.7 5 Sudeste 12 Sudeste 0 -- -- 64
2020-01-06 14:00:00 13.2 6 Sur 10 Sur 0 -- -- 61
2020-01-06 13:00:00 12.9 4 Sudeste 12 Este 0 -- -- 61
2020-01-06 12:00:00 11 3 Sudeste 6 Sudeste 0 -- -- 71
2020-01-06 11:00:00 5.9 0 Calma 5 Sudoeste 0 -- -- 99
2020-01-06 10:00:00 1.5 0 Calma 7 Sudoeste 0 -- -- 98